Time;durP1;ratioP1;P1;durP2;ratioP2;P2;SDS_P1;SDS_P2;PMS_P1;PMS_P2;Temp;Humidity;BMP_temperature;BMP_pressure;BME280_temperature;BME280_humidity;BME280_pressure;Samples;Min_cycle;Max_cycle;Signal;HPM_P1;HPM_P2
2021/03/22 00:01:10;;;;;;;24.47;8.47;;;;;;;2.74;80.34;97026.38;4996974;28;20179;-64
2021/03/22 00:03:35;;;;;;;21.40;7.67;;;;;;;2.72;80.67;97025.75;5014581;28;20250;-64
2021/03/22 00:06:01;;;;;;;25.43;8.53;;;;;;;2.59;81.26;97030.66;4997309;28;20278;-64
2021/03/22 00:08:28;;;;;;;24.00;8.77;;;;;;;2.65;81.20;97027.41;5014618;28;20571;-64
2021/03/22 00:10:54;;;;;;;16.63;7.40;;;;;;;2.53;81.50;97028.75;4997612;28;20183;-63
2021/03/22 00:13:22;;;;;;;19.70;7.37;;;;;;;2.60;81.77;97033.09;5014221;28;20179;-63
2021/03/22 00:15:50;;;;;;;24.80;9.43;;;;;;;2.63;81.25;97027.56;4996911;28;20286;-64
2021/03/22 00:18:20;;;;;;;21.63;8.07;;;;;;;2.56;81.56;97020.69;5014166;28;20193;-64
2021/03/22 00:20:46;;;;;;;23.80;7.93;;;;;;;2.70;80.71;97020.75;4997191;28;20199;-64
2021/03/22 00:23:13;;;;;;;21.53;7.53;;;;;;;2.63;81.55;97019.81;5014447;28;20294;-74
2021/03/22 00:25:39;;;;;;;19.80;7.70;;;;;;;2.76;80.48;97016.66;5014899;28;20501;-64
2021/03/22 00:28:05;;;;;;;20.80;8.07;;;;;;;2.67;81.69;97018.50;5014121;28;20310;-64
2021/03/22 00:30:37;;;;;;;20.20;8.23;;;;;;;2.74;81.54;97019.41;5013926;28;20245;-65
2021/03/22 00:33:04;;;;;;;20.13;7.27;;;;;;;2.78;81.10;97017.31;5014140;28;20236;-64
2021/03/22 00:35:29;;;;;;;32.27;8.73;;;;;;;2.82;80.12;97018.56;5013941;28;20183;-64
2021/03/22 00:37:55;;;;;;;19.83;7.93;;;;;;;2.86;80.28;97018.03;5014082;28;20194;-65
2021/03/22 00:40:24;;;;;;;18.77;7.37;;;;;;;2.81;80.33;97024.72;5014037;28;20176;-64
2021/03/22 00:42:50;;;;;;;25.67;7.67;;;;;;;2.80;80.17;97018.72;4996386;28;20203;-67
2021/03/22 00:45:18;;;;;;;21.17;7.20;;;;;;;2.90;80.63;97021.09;5013075;28;20182;-64
2021/03/22 00:47:43;;;;;;;25.03;7.33;;;;;;;2.89;80.65;97017.72;4995507;28;20179;-64
2021/03/22 00:50:12;;;;;;;21.00;6.87;;;;;;;2.85;80.60;97015.63;5013543;28;20191;-74
2021/03/22 00:52:38;;;;;;;13.57;6.87;;;;;;;2.94;79.79;97017.19;5013608;28;20183;-65
2021/03/22 00:55:04;;;;;;;21.73;6.97;;;;;;;2.84;80.59;97014.03;4996272;28;20250;-64
2021/03/22 00:57:30;;;;;;;27.87;7.23;;;;;;;3.00;80.70;97015.69;5012963;28;20195;-65
2021/03/22 00:59:56;;;;;;;17.37;7.43;;;;;;;2.93;79.98;97008.63;5013980;28;20175;-64
2021/03/22 01:02:21;;;;;;;26.87;8.03;;;;;;;3.02;80.24;97005.97;5013182;28;20861;-64
2021/03/22 01:04:47;;;;;;;21.37;6.57;;;;;;;3.04;79.60;97014.38;5013910;28;20180;-64
2021/03/22 01:07:13;;;;;;;23.40;6.37;;;;;;;3.04;79.74;97011.78;5013053;28;20180;-74
2021/03/22 01:09:39;;;;;;;20.57;6.83;;;;;;;2.94;80.30;96999.06;5013328;28;20179;-64
2021/03/22 01:12:05;;;;;;;20.47;7.30;;;;;;;3.00;79.77;97002.75;5013198;28;20239;-65
2021/03/22 01:14:30;;;;;;;25.60;7.90;;;;;;;3.06;79.24;96994.28;4995299;28;20266;-64
2021/03/22 01:16:56;;;;;;;21.73;6.57;;;;;;;3.08;79.52;96995.72;4995321;28;20259;-64
2021/03/22 01:19:27;;;;;;;20.03;6.87;;;;;;;3.13;79.04;97002.94;5012794;28;20187;-64
2021/03/22 01:21:59;;;;;;;17.20;6.17;;;;;;;3.22;79.00;96996.75;4995918;28;20211;-64
2021/03/22 01:24:27;;;;;;;17.33;6.73;;;;;;;3.11;79.45;96991.97;5013398;28;20183;-65
2021/03/22 01:26:55;;;;;;;18.27;6.73;;;;;;;3.08;79.41;96989.72;5013271;28;20676;-64
2021/03/22 01:29:36;;;;;;;16.80;5.77;;;;;;;3.09;78.69;96994.75;5012507;28;20630;-64
2021/03/22 01:32:05;;;;;;;19.17;6.17;;;;;;;3.06;79.56;96995.09;5013611;28;20206;-63
2021/03/22 01:34:31;;;;;;;18.70;6.77;;;;;;;2.98;79.01;96982.22;4995262;28;20271;-63
2021/03/22 01:36:57;;;;;;;22.93;6.90;;;;;;;2.92;79.94;96983.72;5012680;28;20624;-64
2021/03/22 01:39:26;;;;;;;19.47;6.40;;;;;;;2.97;79.02;96988.34;5011900;28;20520;-64
2021/03/22 01:42:16;;;;;;;15.03;6.00;;;;;;;2.94;79.42;96991.31;5013263;28;20226;-63
2021/03/22 01:44:44;;;;;;;22.17;5.73;;;;;;;2.95;78.48;96982.56;4999960;28;20163;-63
2021/03/22 01:47:16;;;;;;;17.73;5.20;;;;;;;2.93;78.71;96977.56;4995019;28;20175;-75
2021/03/22 01:49:51;;;;;;;15.60;6.00;;;;;;;3.04;78.40;96986.69;5012486;28;20172;-64
2021/03/22 01:52:17;;;;;;;22.27;6.07;;;;;;;2.85;79.26;96982.78;5012282;28;20176;-64
2021/03/22 01:54:44;;;;;;;21.60;6.00;;;;;;;2.98;78.30;96984.00;4994741;28;20687;-65
2021/03/22 01:57:34;;;;;;;17.63;6.30;;;;;;;2.81;79.34;96985.91;5012753;28;20262;-70
2021/03/22 02:00:10;;;;;;;15.77;6.07;;;;;;;3.04;78.68;96981.50;4997965;28;20186;-64
2021/03/22 02:02:37;;;;;;;16.43;5.57;;;;;;;2.99;77.92;96981.22;4995032;28;20213;-64
2021/03/22 02:05:09;;;;;;;19.53;5.53;;;;;;;3.10;78.11;96987.78;4994860;28;20285;-65
2021/03/22 02:07:35;;;;;;;20.10;5.93;;;;;;;3.08;78.46;96985.34;5012400;28;20206;-64
2021/03/22 02:10:00;;;;;;;21.57;6.00;;;;;;;2.86;78.67;96981.81;4995331;28;20183;-64
2021/03/22 02:12:29;;;;;;;16.83;5.23;;;;;;;3.08;77.58;96980.19;4994472;28;20194;-64
2021/03/22 02:14:55;;;;;;;17.70;5.13;;;;;;;3.01;77.38;96973.31;5012417;28;20639;-65
2021/03/22 02:17:48;;;;;;;21.83;6.30;;;;;;;3.03;78.02;96974.72;4994330;28;20187;-65
2021/03/22 02:20:48;;;;;;;17.00;5.43;;;;;;;3.02;77.73;96978.28;4996001;28;20255;-73
2021/03/22 02:23:47;;;;;;;17.30;5.63;;;;;;;3.00;77.76;96982.84;4993899;28;20222;-76
2021/03/22 02:26:50;;;;;;;16.63;4.80;;;;;;;2.89;79.34;96978.88;4994551;28;20536;-76
2021/03/22 02:29:29;;;;;;;18.50;6.07;;;;;;;2.90;79.33;96980.47;5012080;28;20198;-70
2021/03/22 02:32:37;;;;;;;16.43;4.83;;;;;;;2.84;79.08;96982.97;5012224;28;20175;-65
2021/03/22 02:35:12;;;;;;;23.47;6.27;;;;;;;2.81;79.08;96991.88;5004076;28;20221;-64
2021/03/22 02:38:02;;;;;;;17.23;5.30;;;;;;;2.85;79.64;96998.31;5011890;28;20249;-65
2021/03/22 02:40:34;;;;;;;23.43;5.10;;;;;;;2.81;79.54;97004.00;5011684;28;20306;-68
2021/03/22 02:43:03;;;;;;;15.13;5.40;;;;;;;2.81;79.81;96997.06;5012090;28;20214;-65
2021/03/22 02:45:37;;;;;;;17.80;5.00;;;;;;;2.83;79.84;96997.69;4993395;28;20634;-65
2021/03/22 02:48:05;;;;;;;22.10;5.60;;;;;;;2.90;79.58;96990.03;5011869;28;20190;-64
2021/03/22 02:50:39;;;;;;;19.37;4.77;;;;;;;2.95;79.43;96989.53;5010985;28;20218;-63
2021/03/22 02:53:31;;;;;;;17.60;5.67;;;;;;;2.91;79.72;96989.84;4992545;28;20184;-65
2021/03/22 02:56:09;;;;;;;21.07;5.97;;;;;;;2.80;80.17;96992.03;4994666;28;20186;-64
2021/03/22 02:58:48;;;;;;;21.33;5.30;;;;;;;2.81;79.62;96996.25;5011087;28;20823;-64
2021/03/22 03:01:29;;;;;;;17.93;4.60;;;;;;;2.81;79.45;96994.47;5011464;28;20243;-75
2021/03/22 03:03:57;;;;;;;16.33;4.50;;;;;;;2.73;79.91;96993.72;4994511;28;20198;-64
2021/03/22 03:06:54;;;;;;;20.80;5.83;;;;;;;2.64;79.58;96997.34;4993448;28;20257;-65
2021/03/22 03:09:23;;;;;;;16.77;5.20;;;;;;;2.54;80.11;96999.34;5011143;28;20183;-65
2021/03/22 03:11:49;;;;;;;19.07;5.20;;;;;;;2.60;79.29;96990.91;4993887;28;20183;-65
2021/03/22 03:14:15;;;;;;;17.63;4.90;;;;;;;2.65;79.56;96996.34;5011516;28;20229;-77
2021/03/22 03:16:40;;;;;;;20.07;5.30;;;;;;;2.61;78.95;96997.69;5011882;28;20568;-64
2021/03/22 03:19:07;;;;;;;13.70;4.27;;;;;;;2.53;79.50;97002.91;5011649;28;20194;-64
2021/03/22 03:21:33;;;;;;;17.60;4.57;;;;;;;2.65;78.60;97009.28;4993242;28;20215;-65
2021/03/22 03:23:59;;;;;;;18.47;4.40;;;;;;;2.69;77.83;97002.78;5011595;28;20187;-65
2021/03/22 03:26:25;;;;;;;16.50;4.90;;;;;;;2.65;78.38;97009.28;5010648;28;20262;-65
2021/03/22 03:28:50;;;;;;;16.67;4.30;;;;;;;2.69;77.55;97015.72;4994053;28;20206;-65
2021/03/22 03:31:16;;;;;;;13.27;4.03;;;;;;;2.69;77.62;97015.72;5011217;28;20217;-73
2021/03/22 03:33:41;;;;;;;19.40;5.53;;;;;;;2.71;76.84;97017.19;4994718;28;20249;-65
2021/03/22 03:36:07;;;;;;;20.70;4.33;;;;;;;2.73;76.62;97015.22;5016084;28;20631;-65
2021/03/22 03:38:32;;;;;;;15.20;4.47;;;;;;;2.77;76.51;97015.69;4997705;28;20299;-64
2021/03/22 03:40:58;;;;;;;18.17;4.43;;;;;;;2.79;75.46;97018.91;5015214;28;20629;-64
2021/03/22 03:43:23;;;;;;;18.90;4.53;;;;;;;2.69;76.77;97015.72;5014102;28;20210;-70
2021/03/22 03:45:52;;;;;;;17.93;4.33;;;;;;;2.80;76.41;97023.09;5015101;28;20175;-64
2021/03/22 03:48:21;;;;;;;17.47;4.60;;;;;;;2.82;75.11;97015.97;5014565;28;20179;-65
2021/03/22 03:50:47;;;;;;;14.07;4.80;;;;;;;2.75;75.01;97022.81;5015633;28;20622;-65
2021/03/22 03:53:13;;;;;;;16.37;4.80;;;;;;;2.58;74.44;97016.94;5014096;28;20215;-72
2021/03/22 03:55:39;;;;;;;13.23;4.23;;;;;;;2.65;74.59;97014.47;5014270;28;20650;-65
2021/03/22 03:58:06;;;;;;;16.67;4.90;;;;;;;2.75;74.24;97012.47;5015372;28;20525;-64
2021/03/22 04:00:42;;;;;;;10.80;3.77;;;;;;;2.63;74.92;97011.25;4996873;28;20246;-64
2021/03/22 04:03:31;;;;;;;13.77;4.03;;;;;;;2.56;75.92;97015.50;5015109;28;20234;-64
2021/03/22 04:06:20;;;;;;;16.27;4.23;;;;;;;2.66;74.73;97014.31;5014897;28;20250;-65
2021/03/22 04:08:47;;;;;;;15.60;4.13;;;;;;;2.74;74.94;97011.66;4989702;28;20187;-64
2021/03/22 04:11:16;;;;;;;23.80;4.77;;;;;;;2.66;76.19;97022.06;5014634;28;20211;-76
2021/03/22 04:13:41;;;;;;;17.93;4.50;;;;;;;2.64;75.97;97028.38;5015205;28;20796;-64
2021/03/22 04:16:09;;;;;;;15.00;4.93;;;;;;;2.67;76.32;97022.88;5014948;28;20179;-72
2021/03/22 04:18:37;;;;;;;18.60;3.77;;;;;;;2.64;76.63;97029.19;4996589;28;20278;-64
2021/03/22 04:21:08;;;;;;;21.53;4.60;;;;;;;2.63;76.21;97019.00;5014524;28;20195;-64
2021/03/22 04:23:34;;;;;;;12.93;4.10;;;;;;;2.70;76.37;97019.94;5013952;28;20179;-64
2021/03/22 04:26:00;;;;;;;18.93;4.30;;;;;;;2.54;76.80;97020.03;5014829;28;20186;-64
2021/03/22 04:28:26;;;;;;;14.97;4.60;;;;;;;2.68;75.87;97019.28;5014080;28;20617;-64
2021/03/22 04:30:52;;;;;;;12.23;4.10;;;;;;;2.57;75.77;97023.06;5014392;28;20210;-67
2021/03/22 04:33:17;;;;;;;12.30;3.77;;;;;;;2.42;75.44;97023.00;5013242;28;20171;-65
2021/03/22 04:35:42;;;;;;;21.97;4.63;;;;;;;2.51;75.23;97032.31;5014123;28;20229;-64
2021/03/22 04:38:08;;;;;;;11.93;3.90;;;;;;;2.63;73.62;97027.56;5014216;28;20199;-64
2021/03/22 04:40:33;;;;;;;11.30;4.37;;;;;;;2.54;73.14;97026.00;5013783;28;20237;-64
2021/03/22 04:42:59;;;;;;;11.53;3.93;;;;;;;2.46;73.43;97026.84;5014133;28;20198;-64
2021/03/22 04:45:29;;;;;;;9.30;4.03;;;;;;;2.34;71.80;97028.19;5013421;28;20190;-64
2021/03/22 04:47:54;;;;;;;12.57;4.37;;;;;;;2.50;72.02;97038.50;5014130;28;20684;-65
2021/03/22 04:50:22;;;;;;;12.13;4.63;;;;;;;2.49;71.75;97038.66;5013737;28;20192;-64
2021/03/22 04:52:48;;;;;;;15.40;4.43;;;;;;;2.48;71.50;97035.25;5013747;28;20168;-64
2021/03/22 04:55:14;;;;;;;19.43;4.57;;;;;;;2.36;72.42;97030.63;5013479;28;20277;-76
2021/03/22 04:57:39;;;;;;;12.07;3.40;;;;;;;2.54;72.29;97031.19;4995881;28;20186;-64
2021/03/22 05:00:11;;;;;;;13.67;4.50;;;;;;;2.64;72.34;97028.38;5013505;28;20649;-64
2021/03/22 05:02:36;;;;;;;14.27;4.27;;;;;;;2.69;72.42;97034.66;5013076;28;20277;-64
2021/03/22 05:05:04;;;;;;;17.90;4.07;;;;;;;2.70;72.44;97035.47;5013339;28;20195;-64
2021/03/22 05:07:29;;;;;;;18.13;4.37;;;;;;;2.67;73.28;97033.22;5012804;28;20178;-64
2021/03/22 05:09:54;;;;;;;15.47;4.70;;;;;;;2.58;73.88;97036.81;5013377;28;20234;-64
2021/03/22 05:12:20;;;;;;;18.90;4.87;;;;;;;2.60;74.22;97027.13;5013022;28;20598;-65
2021/03/22 05:14:45;;;;;;;16.27;4.70;;;;;;;2.55;74.23;97034.59;5014060;28;20266;-64
2021/03/22 05:17:11;;;;;;;9.23;4.03;;;;;;;2.51;75.43;97034.09;4996444;28;20529;-64
2021/03/22 05:19:36;;;;;;;13.67;3.77;;;;;;;2.51;74.40;97044.44;5012880;28;20183;-64
2021/03/22 05:22:03;;;;;;;11.90;4.47;;;;;;;2.53;73.81;97046.88;5013259;28;20199;-64
2021/03/22 05:24:28;;;;;;;10.23;4.13;;;;;;;2.60;73.37;97053.00;5012738;28;20254;-64
2021/03/22 05:26:55;;;;;;;12.17;4.23;;;;;;;2.34;73.88;97056.66;4996303;28;20179;-64
2021/03/22 05:29:23;;;;;;;15.43;4.47;;;;;;;2.45;73.78;97053.69;5012746;28;20211;-65
2021/03/22 05:31:49;;;;;;;12.67;4.77;;;;;;;2.39;73.71;97058.75;5013754;28;20230;-64
2021/03/22 05:34:15;;;;;;;12.53;3.73;;;;;;;2.27;74.37;97058.31;5012816;28;20178;-75
2021/03/22 05:36:41;;;;;;;13.90;4.17;;;;;;;2.31;74.38;97063.94;5012554;28;20190;-64
2021/03/22 05:39:06;;;;;;;13.97;4.03;;;;;;;2.35;73.59;97072.97;5013243;28;20187;-64
2021/03/22 05:41:46;;;;;;;16.40;4.00;;;;;;;2.28;73.79;97075.44;5012344;28;20246;-64
2021/03/22 05:44:34;;;;;;;16.73;4.73;;;;;;;2.12;74.26;97067.72;5012915;28;20183;-64
2021/03/22 05:47:37;;;;;;;15.70;3.77;;;;;;;2.12;73.79;97072.13;5012605;28;20199;-64
2021/03/22 05:50:14;;;;;;;13.57;3.80;;;;;;;2.38;72.52;97064.91;5012859;28;20210;-64
2021/03/22 05:52:58;;;;;;;15.23;4.37;;;;;;;2.47;71.45;97066.47;4997889;28;20179;-64
2021/03/22 05:55:36;;;;;;;20.63;4.37;;;;;;;2.38;72.07;97070.88;5012429;28;20543;-64
2021/03/22 05:58:40;;;;;;;12.70;3.70;;;;;;;2.51;71.56;97070.31;5012641;28;20179;-64
2021/03/22 06:01:32;;;;;;;12.70;3.40;;;;;;;2.62;70.93;97069.94;5001645;28;20240;-64
2021/03/22 06:04:04;;;;;;;11.40;3.80;;;;;;;2.40;70.75;97073.28;5012555;28;20171;-64
2021/03/22 06:06:36;;;;;;;10.40;3.83;;;;;;;2.35;70.88;97089.31;5004144;28;20176;-64
2021/03/22 06:09:16;;;;;;;10.67;3.50;;;;;;;2.45;70.81;97089.91;5012875;28;20163;-64
2021/03/22 06:12:13;;;;;;;11.90;3.77;;;;;;;2.41;71.00;97082.66;5006060;28;20684;-65
2021/03/22 06:14:51;;;;;;;11.00;4.07;;;;;;;2.35;71.33;97083.31;5001742;28;20266;-68
2021/03/22 06:17:28;;;;;;;10.70;3.67;;;;;;;2.35;71.41;97083.31;4999191;28;20202;-74
2021/03/22 06:19:58;;;;;;;8.10;3.20;;;;;;;2.74;78.61;97076.34;5003306;28;20254;-64
2021/03/22 06:22:29;;;;;;;11.87;3.23;;;;;;;2.60;71.28;97086.63;5009627;28;20554;-64
2021/03/22 06:24:56;;;;;;;8.80;3.03;;;;;;;2.67;71.50;97084.97;5012500;28;20172;-63
2021/03/22 06:27:22;;;;;;;12.13;3.67;;;;;;;2.64;70.68;97080.94;4994245;28;20183;-67
2021/03/22 06:29:48;;;;;;;12.60;4.30;;;;;;;2.72;70.76;97088.66;5012252;28;20179;-66
2021/03/22 06:32:14;;;;;;;11.00;5.10;;;;;;;2.81;70.46;97089.41;5012356;28;20259;-66
2021/03/22 06:34:54;;;;;;;10.03;3.60;;;;;;;2.82;70.68;97103.97;5011229;28;20278;-67
2021/03/22 06:37:29;;;;;;;13.13;3.93;;;;;;;2.90;72.39;97096.16;5011166;28;20241;-74
2021/03/22 06:40:26;;;;;;;12.73;4.30;;;;;;;2.78;73.14;97100.13;5012077;28;20575;-66
2021/03/22 06:43:20;;;;;;;19.90;5.10;;;;;;;2.87;73.69;97115.44;5004147;28;20203;-67
2021/03/22 06:46:06;;;;;;;20.50;5.40;;;;;;;2.91;72.83;97106.34;4990813;28;20183;-66
2021/03/22 06:48:34;;;;;;;18.50;4.77;;;;;;;2.79;74.82;97107.69;5011827;28;20206;-66
2021/03/22 06:51:00;;;;;;;10.63;4.53;;;;;;;2.94;74.25;97115.56;5005208;28;20191;-69
2021/03/22 06:53:37;;;;;;;20.13;5.77;;;;;;;2.75;75.61;97116.78;4987456;28;20230;-68
2021/03/22 06:56:23;;;;;;;11.10;3.80;;;;;;;2.93;75.02;97117.34;4981324;28;20232;-66
2021/03/22 06:58:51;;;;;;;17.40;4.40;;;;;;;2.82;75.71;97119.50;5011663;28;20634;-65
2021/03/22 07:01:29;;;;;;;19.57;4.60;;;;;;;2.64;76.49;97114.56;5011124;28;20258;-72
2021/03/22 07:04:20;;;;;;;17.43;4.40;;;;;;;2.72;76.99;97121.50;5011599;28;20255;-67
2021/03/22 07:07:16;;;;;;;17.70;4.40;;;;;;;2.88;76.11;97130.00;5011607;28;20178;-65
2021/03/22 07:09:57;;;;;;;17.77;3.90;;;;;;;2.82;77.05;97130.66;4982391;28;20190;-65
2021/03/22 07:12:40;;;;;;;16.50;3.90;;;;;;;2.81;76.39;97128.25;4992794;28;20187;-65
2021/03/22 07:15:30;;;;;;;17.63;4.73;;;;;;;2.89;75.65;97129.03;5011209;28;20531;-65
2021/03/22 07:18:03;;;;;;;14.93;4.30;;;;;;;2.77;76.46;97129.56;5011812;28;20548;-66
2021/03/22 07:20:30;;;;;;;16.40;3.83;;;;;;;2.84;76.94;97135.69;5010218;28;20183;-66
2021/03/22 07:23:29;;;;;;;20.50;4.40;;;;;;;2.68;75.69;97123.59;5010054;28;20203;-65
2021/03/22 07:26:11;;;;;;;16.00;3.73;;;;;;;2.91;75.61;97121.06;5006187;28;20211;-65
2021/03/22 07:29:44;;;;;;;19.00;4.50;;;;;;;3.15;75.11;97127.88;4983616;28;20182;-65
2021/03/22 07:32:49;;;;;;;14.77;3.93;;;;;;;3.30;73.88;97128.75;4920579;29;20225;-66
2021/03/22 07:35:33;;;;;;;14.57;4.73;;;;;;;3.17;73.66;97141.50;4994261;28;20179;-66
2021/03/22 07:38:28;;;;;;;14.20;4.10;;;;;;;3.26;73.41;97145.63;5011003;28;20575;-66
2021/03/22 07:40:59;;;;;;;21.53;4.33;;;;;;;3.31;74.03;97141.53;4993355;28;20257;-65
2021/03/22 07:43:46;;;;;;;20.73;4.20;;;;;;;3.55;72.95;97145.75;5007055;28;20257;-69
2021/03/22 07:46:30;;;;;;;14.40;4.23;;;;;;;3.56;72.88;97149.97;5010977;28;20257;-65
2021/03/22 07:49:18;;;;;;;12.43;4.23;;;;;;;3.40;73.39;97142.28;5010743;28;20174;-66
2021/03/22 07:51:50;;;;;;;13.47;4.40;;;;;;;3.49;72.79;97153.41;5009965;28;20179;-66
2021/03/22 07:54:26;;;;;;;14.27;4.90;;;;;;;3.42;72.13;97155.88;5009933;28;20701;-66
2021/03/22 07:57:04;;;;;;;12.73;4.73;;;;;;;3.43;72.59;97156.69;5010670;28;20163;-66
2021/03/22 07:59:51;;;;;;;17.57;4.50;;;;;;;3.51;72.66;97157.44;5009786;28;20660;-66
2021/03/22 08:02:47;;;;;;;10.43;4.20;;;;;;;3.44;72.67;97156.53;5002252;28;20183;-66
2021/03/22 08:05:47;;;;;;;12.73;4.63;;;;;;;3.36;73.09;97164.34;5010987;28;20206;-66
2021/03/22 08:08:50;;;;;;;16.13;5.20;;;;;;;3.55;72.51;97165.69;4983309;28;20195;-66
2021/03/22 08:11:39;;;;;;;17.67;4.13;;;;;;;3.83;72.05;97169.34;4977864;28;20549;-66
2021/03/22 08:14:07;;;;;;;15.97;4.17;;;;;;;4.03;71.83;97172.25;5010415;28;20171;-66
2021/03/22 08:16:43;;;;;;;14.73;4.43;;;;;;;3.85;71.83;97180.34;5000303;28;20179;-67
2021/03/22 08:19:42;;;;;;;16.00;4.90;;;;;;;3.88;71.33;97182.59;5010839;28;20171;-66
2021/03/22 08:22:29;;;;;;;12.80;4.77;;;;;;;4.11;69.90;97175.59;5014579;28;20191;-66
2021/03/22 08:25:13;;;;;;;11.70;4.37;;;;;;;4.28;68.87;97178.03;5014267;28;20238;-66
2021/03/22 08:27:44;;;;;;;11.50;4.20;;;;;;;3.86;69.32;97184.53;4995767;28;20185;-65
2021/03/22 08:30:30;;;;;;;13.83;3.87;;;;;;;3.78;69.01;97186.41;4977907;28;20218;-66
2021/03/22 08:33:11;;;;;;;14.83;4.77;;;;;;;3.66;69.56;97196.38;5005078;28;20574;-67
2021/03/22 08:35:39;;;;;;;8.17;3.73;;;;;;;3.71;68.96;97191.47;5013350;28;20245;-66
2021/03/22 08:38:18;;;;;;;8.87;4.03;;;;;;;3.90;68.16;97188.38;5014017;28;20186;-66
2021/03/22 08:40:49;;;;;;;8.27;3.00;;;;;;;4.28;67.82;97198.78;5009746;28;20193;-66
2021/03/22 08:43:40;;;;;;;12.73;4.63;;;;;;;4.13;66.17;97199.53;5013939;28;20195;-67
2021/03/22 08:46:28;;;;;;;11.20;3.33;;;;;;;4.26;65.86;97200.72;5001422;28;20253;-66
2021/03/22 08:48:54;;;;;;;8.43;3.50;;;;;;;3.87;67.81;97209.50;5007256;28;20179;-66
2021/03/22 08:51:25;;;;;;;9.30;3.40;;;;;;;3.87;67.03;97206.09;5013537;28;21307;-72
2021/03/22 08:53:52;;;;;;;11.50;3.50;;;;;;;4.25;67.02;97215.50;4995198;28;20223;-66
2021/03/22 08:56:38;;;;;;;7.63;3.67;;;;;;;4.34;66.99;97211.84;5013930;28;20175;-66
2021/03/22 08:59:17;;;;;;;12.77;4.07;;;;;;;4.23;66.83;97212.28;5013574;28;20561;-67
2021/03/22 09:01:43;;;;;;;9.33;3.13;;;;;;;3.80;67.91;97210.34;5012214;28;20202;-67
2021/03/22 09:04:17;;;;;;;11.87;4.13;;;;;;;3.69;68.41;97220.16;5013754;28;20261;-65
2021/03/22 09:07:10;;;;;;;10.67;4.10;;;;;;;4.22;67.53;97223.63;5013026;28;20432;-67
2021/03/22 09:09:42;;;;;;;9.73;3.43;;;;;;;4.10;67.53;97222.44;4995391;28;20206;-67
2021/03/22 09:12:41;;;;;;;11.33;3.90;;;;;;;3.75;68.76;97216.88;5013052;28;20172;-66
2021/03/22 09:15:38;;;;;;;10.27;3.93;;;;;;;3.91;68.26;97223.72;4994695;28;20206;-65
2021/03/22 09:18:04;;;;;;;10.67;3.43;;;;;;;3.98;67.12;97222.03;5013403;28;20171;-66
2021/03/22 09:20:50;;;;;;;6.30;3.60;;;;;;;4.09;66.27;97220.81;5012948;28;20570;-66
2021/03/22 09:23:31;;;;;;;9.57;3.43;;;;;;;4.06;67.72;97228.97;5012304;28;20246;-66
2021/03/22 09:26:02;;;;;;;10.70;3.50;;;;;;;3.68;68.63;97234.09;5013474;28;20188;-66
2021/03/22 09:28:28;;;;;;;10.17;3.87;;;;;;;3.72;69.14;97237.97;5012286;28;20180;-66
2021/03/22 09:31:02;;;;;;;8.40;3.20;;;;;;;3.70;69.90;97245.09;5012271;28;20634;-66
2021/03/22 09:33:53;;;;;;;8.80;3.20;;;;;;;3.89;70.65;97236.06;5012054;28;20273;-66
2021/03/22 09:36:45;;;;;;;8.57;3.60;;;;;;;4.12;72.28;97234.25;4995568;28;20255;-66
2021/03/22 09:39:19;;;;;;;9.13;3.80;;;;;;;4.22;70.50;97236.59;5002683;28;20176;-66
2021/03/22 09:42:12;;;;;;;6.77;3.30;;;;;;;3.98;69.76;97237.59;5011760;28;20783;-66
2021/03/22 09:44:57;;;;;;;7.90;3.57;;;;;;;3.89;69.13;97237.84;4994688;28;20241;-66
2021/03/22 09:47:35;;;;;;;9.47;3.33;;;;;;;3.83;70.86;97241.13;5012432;28;20222;-72
2021/03/22 09:50:19;;;;;;;13.90;3.90;;;;;;;4.05;69.80;97245.50;5012651;28;20171;-66
2021/03/22 09:52:51;;;;;;;10.33;3.73;;;;;;;3.93;70.08;97254.66;4993015;28;20577;-71
2021/03/22 09:55:25;;;;;;;8.50;3.63;;;;;;;3.97;72.28;97240.38;4994775;28;20227;-73
2021/03/22 09:57:52;;;;;;;8.97;3.53;;;;;;;3.96;70.96;97234.38;5012869;28;20289;-72
2021/03/22 10:00:32;;;;;;;8.43;3.47;;;;;;;3.60;69.92;97236.75;5012740;28;20218;-71
2021/03/22 10:03:00;;;;;;;9.53;3.50;;;;;;;3.68;69.56;97238.47;4994210;28;20195;-70
2021/03/22 10:05:52;;;;;;;7.50;3.63;;;;;;;3.57;69.57;97246.63;5011898;28;20510;-72
2021/03/22 10:08:31;;;;;;;10.27;3.60;;;;;;;4.00;69.37;97238.25;4995008;28;20266;-72
2021/03/22 10:11:19;;;;;;;8.17;3.40;;;;;;;4.32;68.39;97239.75;5012350;28;20594;-71
2021/03/22 10:13:47;;;;;;;9.80;3.60;;;;;;;4.85;66.92;97236.13;4996615;28;20844;-71
2021/03/22 10:16:26;;;;;;;6.03;3.40;;;;;;;5.36;63.81;97249.97;5012594;28;20187;-72
2021/03/22 10:18:56;;;;;;;8.20;3.33;;;;;;;5.23;63.80;97251.63;4994790;28;20179;-70
2021/03/22 10:21:30;;;;;;;13.67;3.70;;;;;;;5.08;63.39;97246.41;5011529;28;20187;-72
2021/03/22 10:24:14;;;;;;;6.77;3.07;;;;;;;4.96;64.22;97240.88;4980138;28;20179;-72
2021/03/22 10:26:46;;;;;;;6.33;3.30;;;;;;;5.31;63.65;97244.50;5001435;28;20221;-72
2021/03/22 10:29:20;;;;;;;7.20;3.37;;;;;;;4.81;64.17;97245.28;5011802;28;20237;-72
2021/03/22 10:31:55;;;;;;;8.93;3.17;;;;;;;4.85;64.32;97243.13;5011762;28;20245;-72
2021/03/22 10:34:24;;;;;;;8.03;3.20;;;;;;;4.99;64.30;97237.94;5011963;28;20175;-72
2021/03/22 10:36:50;;;;;;;12.30;3.40;;;;;;;5.01;64.21;97237.75;5011685;28;20183;-72
2021/03/22 10:39:25;;;;;;;8.07;3.53;;;;;;;5.13;63.84;97240.69;4993821;28;20592;-72
2021/03/22 10:41:51;;;;;;;14.80;3.13;;;;;;;5.10;63.97;97247.06;5011580;28;20248;-72
2021/03/22 10:44:26;;;;;;;5.23;3.30;;;;;;;4.97;64.00;97242.50;5011632;28;20204;-72
2021/03/22 10:47:13;;;;;;;7.23;3.23;;;;;;;4.99;64.28;97240.53;5011483;28;20179;-72
2021/03/22 10:49:39;;;;;;;5.60;3.00;;;;;;;4.79;63.95;97239.44;5010994;28;20696;-72
2021/03/22 10:52:29;;;;;;;9.93;3.17;;;;;;;4.88;63.68;97243.56;4993283;28;20206;-72
2021/03/22 10:54:55;;;;;;;4.77;2.90;;;;;;;5.01;63.85;97243.72;5011502;28;20633;-73
2021/03/22 10:57:34;;;;;;;5.57;2.83;;;;;;;4.71;64.50;97246.53;4993459;28;20245;-72
2021/03/22 11:00:06;;;;;;;8.87;3.50;;;;;;;4.87;64.65;97246.34;5011196;28;20175;-72
2021/03/22 11:02:44;;;;;;;6.83;2.80;;;;;;;5.21;64.03;97254.41;5010967;28;20188;-72
2021/03/22 11:05:13;;;;;;;7.37;2.87;;;;;;;5.03;64.32;97244.38;5011492;28;20179;-71
2021/03/22 11:07:38;;;;;;;6.67;2.70;;;;;;;5.10;63.64;97248.84;5010586;28;20205;-71
2021/03/22 11:10:18;;;;;;;5.63;2.90;;;;;;;4.88;64.12;97258.34;5011754;28;20175;-70
2021/03/22 11:12:48;;;;;;;6.10;2.90;;;;;;;5.06;63.32;97252.81;5010923;28;20999;-69
2021/03/22 11:15:16;;;;;;;10.27;3.67;;;;;;;5.32;63.81;97253.13;5011298;28;20715;-70
2021/03/22 11:17:43;;;;;;;6.47;2.93;;;;;;;5.18;63.31;97259.97;5010657;28;20330;-71
2021/03/22 11:20:10;;;;;;;5.73;3.00;;;;;;;5.27;63.05;97258.06;5011399;28;20179;-71
2021/03/22 11:22:38;;;;;;;8.40;3.53;;;;;;;5.57;63.03;97264.03;5010629;28;20205;-70
2021/03/22 11:25:33;;;;;;;6.33;2.83;;;;;;;6.19;61.33;97259.84;5011398;28;20211;-71
2021/03/22 11:27:58;;;;;;;6.17;3.37;;;;;;;6.33;60.26;97255.59;5010824;28;20181;-71
2021/03/22 11:30:37;;;;;;;6.90;2.93;;;;;;;6.55;59.33;97259.75;5011452;28;20262;-70
2021/03/22 11:33:09;;;;;;;5.47;2.90;;;;;;;6.84;59.06;97252.75;5011371;28;20179;-70
2021/03/22 11:35:35;;;;;;;10.00;3.00;;;;;;;6.97;58.41;97253.59;5010683;28;20188;-70
2021/03/22 11:38:02;;;;;;;8.17;3.03;;;;;;;7.11;57.54;97246.69;5010123;28;20171;-70
2021/03/22 11:40:31;;;;;;;4.17;2.27;;;;;;;6.81;57.52;97240.88;5010471;28;20302;-73
2021/03/22 11:42:58;;;;;;;4.87;2.23;;;;;;;6.47;57.17;97238.25;5010595;28;20269;-70
2021/03/22 11:45:34;;;;;;;4.00;2.07;;;;;;;6.05;58.09;97239.94;5010810;28;20179;-70
2021/03/22 11:48:00;;;;;;;4.87;2.07;;;;;;;6.03;58.83;97235.88;4992010;28;20202;-72
2021/03/22 11:50:30;;;;;;;4.90;2.37;;;;;;;6.09;57.89;97235.94;5007933;28;20645;-70
2021/03/22 11:53:04;;;;;;;3.30;2.30;;;;;;;5.85;59.40;97244.13;5010287;28;20187;-71
2021/03/22 11:55:38;;;;;;;5.73;2.70;;;;;;;6.11;59.01;97235.78;5012847;28;20180;-71
2021/03/22 11:58:05;;;;;;;3.67;2.70;;;;;;;6.49;57.94;97234.47;4997327;28;20258;-73
2021/03/22 12:00:35;;;;;;;4.87;2.40;;;;;;;6.81;57.39;97234.88;5014166;28;20179;-71
2021/03/22 12:03:08;;;;;;;4.37;2.63;;;;;;;7.43;55.80;97235.56;5013998;28;20274;-72
2021/03/22 12:05:33;;;;;;;3.63;2.27;;;;;;;7.72;54.89;97236.25;4996051;28;20187;-72
2021/03/22 12:08:00;;;;;;;5.20;2.40;;;;;;;8.08;53.63;97226.28;5014582;28;20175;-72
2021/03/22 12:10:33;;;;;;;4.73;2.53;;;;;;;8.05;53.37;97241.53;5014906;28;20262;-71